Time;durP1;ratioP1;P1;durP2;ratioP2;P2;SDS_P1;SDS_P2;PMS_P1;PMS_P2;Temp;Humidity;BMP_temperature;BMP_pressure;BME280_temperature;BME280_humidity;BME280_pressure;Samples;Min_cycle;Max_cycle;Signal;HPM_P1;HPM_P2
2023/03/26 00:01:52;;;;;;;;;;;13.40;71.10;;;;;;5108592;27;83053;-41
2023/03/26 00:04:18;;;;;;;;;;;13.40;71.20;;;;;;5108878;27;84888;-42
2023/03/26 00:06:47;;;;;;;;;;;13.30;71.20;;;;;;5109471;27;82848;-39
2023/03/26 00:09:14;;;;;;;;;;;13.30;71.20;;;;;;5109508;27;81945;-39
2023/03/26 00:11:40;;;;;;;;;;;13.30;71.30;;;;;;5105531;27;83966;-41
2023/03/26 00:14:08;;;;;;;;;;;13.30;71.30;;;;;;5108524;27;84389;-41
2023/03/26 00:16:34;;;;;;;;;;;13.30;71.30;;;;;;5112060;27;82092;-40
2023/03/26 00:19:00;;;;;;;;;;;13.30;71.40;;;;;;5109431;27;82769;-41
2023/03/26 00:21:27;;;;;;;;;;;13.30;71.40;;;;;;5108958;27;82818;-40
2023/03/26 00:23:58;;;;;;;;;;;13.20;71.40;;;;;;5108895;27;83967;-39
2023/03/26 00:26:24;;;;;;;;;;;13.20;71.50;;;;;;5108344;27;85433;-40
2023/03/26 00:28:50;;;;;;;;;;;13.20;71.50;;;;;;5109363;27;82043;-41
2023/03/26 00:31:16;;;;;;;;;;;13.20;71.50;;;;;;5109320;27;81861;-41
2023/03/26 00:33:41;;;;;;;;;;;13.20;71.50;;;;;;5108771;27;84542;-40
2023/03/26 00:36:09;;;;;;;;;;;13.20;71.50;;;;;;5109079;27;82162;-40
2023/03/26 00:38:37;;;;;;;;;;;13.20;71.50;;;;;;5111740;27;84125;-40
2023/03/26 00:41:04;;;;;;;;;;;13.20;71.50;;;;;;5109045;27;82050;-41
2023/03/26 00:43:31;;;;;;;;;;;13.20;71.50;;;;;;5109175;27;84096;-39
2023/03/26 00:45:57;;;;;;;;;;;13.10;71.50;;;;;;5108334;27;83083;-40
2023/03/26 00:48:23;;;;;;;;;;;13.10;71.50;;;;;;5105209;27;82352;-40
2023/03/26 00:50:49;;;;;;;;;;;13.20;71.40;;;;;;5108086;27;84016;-41
2023/03/26 00:53:15;;;;;;;;;;;13.20;71.50;;;;;;5108585;27;84594;-40
2023/03/26 00:55:41;;;;;;;;;;;13.10;71.50;;;;;;5108641;27;82137;-40
2023/03/26 00:58:10;;;;;;;;;;;13.10;71.50;;;;;;5108958;27;83932;-40
2023/03/26 01:00:38;;;;;;;;;;;13.10;71.50;;;;;;5111233;27;82931;-40
2023/03/26 01:03:04;;;;;;;;;;;13.10;71.50;;;;;;5108194;27;84467;-40
2023/03/26 01:05:32;;;;;;;;;;;13.10;71.60;;;;;;5108032;27;82274;-41
2023/03/26 01:08:19;;;;;;;;;;;13.10;71.60;;;;;;5108676;27;81329;-40
2023/03/26 01:10:49;;;;;;;;;;;13.00;71.60;;;;;;5102156;27;82064;-39
2023/03/26 01:13:19;;;;;;;;;;;13.10;71.60;;;;;;5107148;27;84358;-39
2023/03/26 01:15:49;;;;;;;;;;;13.00;71.60;;;;;;5099955;27;84411;-43
2023/03/26 01:18:25;;;;;;;;;;;13.00;71.70;;;;;;5108400;27;83305;-40
2023/03/26 01:20:57;;;;;;;;;;;13.00;71.70;;;;;;5107963;27;84589;-41
2023/03/26 01:23:29;;;;;;;;;;;13.00;71.60;;;;;;5111257;27;81962;-41
2023/03/26 01:26:00;;;;;;;;;;;13.00;71.40;;;;;;5108112;27;84452;-41
2023/03/26 01:28:28;;;;;;;;;;;13.00;71.60;;;;;;5104759;27;82098;-41
2023/03/26 01:31:00;;;;;;;;;;;13.00;71.50;;;;;;5107925;27;83028;-40
2023/03/26 01:33:35;;;;;;;;;;;13.00;71.60;;;;;;5107989;27;84049;-40
2023/03/26 01:36:06;;;;;;;;;;;13.00;71.60;;;;;;5104593;27;82122;-41
2023/03/26 01:38:47;;;;;;;;;;;12.90;71.50;;;;;;5108315;27;82474;-40
2023/03/26 01:41:22;;;;;;;;;;;13.00;71.60;;;;;;5104158;27;84171;-39
2023/03/26 01:43:52;;;;;;;;;;;12.90;71.60;;;;;;5108173;27;82070;-40
2023/03/26 01:46:19;;;;;;;;;;;12.90;71.60;;;;;;5107011;27;84040;-41
2023/03/26 01:48:45;;;;;;;;;;;12.90;71.60;;;;;;5107431;27;82143;-40
2023/03/26 01:51:12;;;;;;;;;;;12.90;71.60;;;;;;5107435;27;82718;-41
2023/03/26 01:53:43;;;;;;;;;;;12.90;71.60;;;;;;5107714;27;83921;-40
2023/03/26 01:56:12;;;;;;;;;;;12.90;71.60;;;;;;5107654;27;82071;-41
2023/03/26 01:58:48;;;;;;;;;;;12.80;71.50;;;;;;5107459;27;83724;-39
2023/03/26 02:01:43;;;;;;;;;;;12.90;71.50;;;;;;5107536;27;83471;-40
2023/03/26 02:04:12;;;;;;;;;;;12.80;71.50;;;;;;5106783;27;82277;-39
2023/03/26 02:06:43;;;;;;;;;;;12.90;71.60;;;;;;5109421;27;83836;-40
2023/03/26 02:09:12;;;;;;;;;;;12.80;71.50;;;;;;5107669;27;82016;-39
2023/03/26 02:11:39;;;;;;;;;;;12.80;71.60;;;;;;5107148;27;82418;-40
2023/03/26 02:14:05;;;;;;;;;;;12.80;71.60;;;;;;5105662;27;86125;-39
2023/03/26 02:16:31;;;;;;;;;;;12.80;71.70;;;;;;5107366;27;82063;-41
2023/03/26 02:18:58;;;;;;;;;;;12.70;71.60;;;;;;5107189;27;84118;-40
2023/03/26 02:21:24;;;;;;;;;;;12.70;71.70;;;;;;5107138;27;84283;-41
2023/03/26 02:23:56;;;;;;;;;;;12.70;71.70;;;;;;5107916;27;81359;-41
2023/03/26 02:26:22;;;;;;;;;;;12.70;71.60;;;;;;5103992;27;83347;-40
2023/03/26 02:28:48;;;;;;;;;;;12.70;71.60;;;;;;5109893;27;84628;-41
2023/03/26 02:31:15;;;;;;;;;;;12.70;71.80;;;;;;5106790;27;82948;-41
2023/03/26 02:33:43;;;;;;;;;;;12.70;71.70;;;;;;5106924;27;84509;-40
2023/03/26 02:36:11;;;;;;;;;;;12.70;71.70;;;;;;5107051;27;82021;-40
2023/03/26 02:38:36;;;;;;;;;;;12.70;71.80;;;;;;5107199;27;82393;-40
2023/03/26 02:41:02;;;;;;;;;;;12.70;71.70;;;;;;5106496;27;84323;-40
2023/03/26 02:43:28;;;;;;;;;;;12.60;71.50;;;;;;5107207;27;81956;-40
2023/03/26 02:45:53;;;;;;;;;;;12.60;71.60;;;;;;5106426;27;84483;-40
2023/03/26 02:48:19;;;;;;;;;;;12.70;71.60;;;;;;5107565;27;82424;-40
2023/03/26 02:50:45;;;;;;;;;;;12.60;71.40;;;;;;5109377;27;82181;-41
2023/03/26 02:53:10;;;;;;;;;;;12.60;71.50;;;;;;5106376;27;84367;-40
2023/03/26 02:55:36;;;;;;;;;;;12.60;71.50;;;;;;5106237;27;83555;-40
2023/03/26 02:58:02;;;;;;;;;;;12.60;71.60;;;;;;5106944;27;85003;-41
2023/03/26 03:00:27;;;;;;;;;;;12.60;71.50;;;;;;5106324;27;84411;-41
2023/03/26 03:02:56;;;;;;;;;;;12.60;71.60;;;;;;5106486;27;82889;-40
2023/03/26 03:05:25;;;;;;;;;;;12.60;71.50;;;;;;5102629;27;83044;-40
2023/03/26 03:07:51;;;;;;;;;;;12.60;71.50;;;;;;5106205;27;83375;-40
2023/03/26 03:10:20;;;;;;;;;;;12.60;71.50;;;;;;5105709;27;82468;-41
2023/03/26 03:12:46;;;;;;;;;;;12.50;71.40;;;;;;5109297;27;82399;-40
2023/03/26 03:15:12;;;;;;;;;;;12.50;71.50;;;;;;5106659;27;81916;-40
2023/03/26 03:17:37;;;;;;;;;;;12.50;71.50;;;;;;5106320;27;82765;-39
2023/03/26 03:20:05;;;;;;;;;;;12.50;71.40;;;;;;5105472;27;85417;-41
2023/03/26 03:22:30;;;;;;;;;;;12.40;71.50;;;;;;5106251;27;82018;-41
2023/03/26 03:24:58;;;;;;;;;;;12.50;71.50;;;;;;5106278;27;84043;-40
2023/03/26 03:27:25;;;;;;;;;;;12.50;71.40;;;;;;5106130;27;84548;-41
2023/03/26 03:29:52;;;;;;;;;;;12.50;71.30;;;;;;5102032;27;82083;-40
2023/03/26 03:32:18;;;;;;;;;;;12.40;71.30;;;;;;5106345;27;82885;-39
2023/03/26 03:34:43;;;;;;;;;;;12.50;71.30;;;;;;5108978;27;82623;-41
2023/03/26 03:37:09;;;;;;;;;;;12.50;71.30;;;;;;5106722;27;83747;-41
2023/03/26 03:39:34;;;;;;;;;;;12.40;71.40;;;;;;5105790;27;83742;-41
2023/03/26 03:42:00;;;;;;;;;;;12.40;71.30;;;;;;5106225;27;82077;-40
2023/03/26 03:44:25;;;;;;;;;;;12.40;71.30;;;;;;5101298;27;83958;-40
2023/03/26 03:46:54;;;;;;;;;;;12.40;71.30;;;;;;5106179;27;84016;-40
2023/03/26 03:49:20;;;;;;;;;;;12.40;71.10;;;;;;5105978;27;82038;-40
2023/03/26 03:51:45;;;;;;;;;;;12.40;71.20;;;;;;5106372;27;83167;-41
2023/03/26 03:54:11;;;;;;;;;;;12.40;71.10;;;;;;5105682;27;84323;-40
2023/03/26 03:56:37;;;;;;;;;;;12.40;71.20;;;;;;5109045;27;82012;-39
2023/03/26 03:59:03;;;;;;;;;;;12.40;71.30;;;;;;5105716;27;84597;-39
2023/03/26 04:01:29;;;;;;;;;;;12.30;71.10;;;;;;5106551;27;81295;-41
2023/03/26 04:03:55;;;;;;;;;;;12.30;71.20;;;;;;5106037;27;83425;-41
2023/03/26 04:06:21;;;;;;;;;;;12.30;71.20;;;;;;5106221;27;83450;-39
2023/03/26 04:08:46;;;;;;;;;;;12.30;71.20;;;;;;5105123;27;82952;-41
2023/03/26 04:11:12;;;;;;;;;;;12.30;71.20;;;;;;5105297;27;85416;-40
2023/03/26 04:13:38;;;;;;;;;;;12.30;71.20;;;;;;5105279;27;84337;-39
2023/03/26 04:16:04;;;;;;;;;;;12.30;71.30;;;;;;5108763;27;82032;-40
2023/03/26 04:18:31;;;;;;;;;;;12.30;71.30;;;;;;5105530;27;84177;-40
2023/03/26 04:21:01;;;;;;;;;;;12.20;71.30;;;;;;5106868;27;82147;-40
2023/03/26 04:23:28;;;;;;;;;;;12.30;71.50;;;;;;5109011;27;83957;-41
2023/03/26 04:25:54;;;;;;;;;;;12.30;71.40;;;;;;5109485;27;82701;-40
2023/03/26 04:28:25;;;;;;;;;;;12.20;71.30;;;;;;5108942;27;82650;-41
2023/03/26 04:30:53;;;;;;;;;;;12.20;71.30;;;;;;5109008;27;83747;-39
2023/03/26 04:33:19;;;;;;;;;;;12.20;71.30;;;;;;5107986;27;85340;-39
2023/03/26 04:35:47;;;;;;;;;;;12.20;71.40;;;;;;5105137;27;82112;-40
2023/03/26 04:38:15;;;;;;;;;;;12.30;71.30;;;;;;5111611;27;83962;-41
2023/03/26 04:40:42;;;;;;;;;;;12.30;71.40;;;;;;5108836;27;82013;-40
2023/03/26 04:43:15;;;;;;;;;;;12.20;71.20;;;;;;5108302;27;82482;-41
2023/03/26 04:45:40;;;;;;;;;;;12.20;71.20;;;;;;5105318;27;83332;-39
2023/03/26 04:48:07;;;;;;;;;;;12.20;71.30;;;;;;5108800;27;81896;-39
2023/03/26 04:50:32;;;;;;;;;;;12.20;71.30;;;;;;5109361;27;84059;-40
2023/03/26 04:52:58;;;;;;;;;;;12.10;71.20;;;;;;5108872;27;84555;-41
2023/03/26 04:55:26;;;;;;;;;;;12.10;71.10;;;;;;5108880;27;82126;-41
2023/03/26 04:57:54;;;;;;;;;;;12.10;71.10;;;;;;5104175;27;84088;-40
2023/03/26 05:00:20;;;;;;;;;;;12.10;71.20;;;;;;5110434;27;84705;-40
2023/03/26 05:02:49;;;;;;;;;;;12.10;71.00;;;;;;5108369;27;83890;-39
2023/03/26 05:05:15;;;;;;;;;;;12.10;71.10;;;;;;5107737;27;84354;-39
2023/03/26 05:07:41;;;;;;;;;;;12.10;71.10;;;;;;5108650;27;82032;-40
2023/03/26 05:10:07;;;;;;;;;;;12.10;71.10;;;;;;5108335;27;84195;-41
2023/03/26 05:12:33;;;;;;;;;;;12.10;71.10;;;;;;5108517;27;85149;-40
2023/03/26 05:14:59;;;;;;;;;;;12.10;71.10;;;;;;5108855;27;81451;-40
2023/03/26 05:17:24;;;;;;;;;;;12.00;71.10;;;;;;5108533;27;82283;-41
2023/03/26 05:19:50;;;;;;;;;;;12.10;71.10;;;;;;5108372;27;84315;-40
2023/03/26 05:22:16;;;;;;;;;;;12.00;71.10;;;;;;5110535;27;82884;-41
2023/03/26 05:24:42;;;;;;;;;;;12.00;71.10;;;;;;5108357;27;83316;-40
2023/03/26 05:27:11;;;;;;;;;;;12.00;71.10;;;;;;5108681;27;82088;-40
2023/03/26 05:29:37;;;;;;;;;;;12.00;71.10;;;;;;5108475;27;82242;-39
2023/03/26 05:32:03;;;;;;;;;;;12.00;71.10;;;;;;5108141;27;84464;-40
2023/03/26 05:34:28;;;;;;;;;;;12.00;71.00;;;;;;5108068;27;82097;-39
2023/03/26 05:36:54;;;;;;;;;;;12.00;71.10;;;;;;5108536;27;83975;-41
2023/03/26 05:39:24;;;;;;;;;;;12.00;71.10;;;;;;5108553;27;83652;-39
2023/03/26 05:41:51;;;;;;;;;;;12.00;71.00;;;;;;5108018;27;82393;-41
2023/03/26 05:44:17;;;;;;;;;;;12.00;71.00;;;;;;5109478;27;85359;-40
2023/03/26 05:46:42;;;;;;;;;;;12.00;70.90;;;;;;5107336;27;83121;-41
2023/03/26 05:49:08;;;;;;;;;;;12.00;70.90;;;;;;5108051;27;84918;-39
2023/03/26 05:51:33;;;;;;;;;;;12.00;71.00;;;;;;5107784;27;84892;-41
2023/03/26 05:53:59;;;;;;;;;;;12.00;70.90;;;;;;5107856;27;82197;-39
2023/03/26 05:56:24;;;;;;;;;;;11.90;70.90;;;;;;5108201;27;83570;-40
2023/03/26 05:58:50;;;;;;;;;;;11.90;70.90;;;;;;5107959;27;82428;-41
2023/03/26 06:01:16;;;;;;;;;;;11.90;70.90;;;;;;5107500;27;82237;-40
2023/03/26 06:03:45;;;;;;;;;;;12.00;71.00;;;;;;5110519;27;83757;-41
2023/03/26 06:06:14;;;;;;;;;;;12.00;70.90;;;;;;5107615;27;82067;-40
2023/03/26 06:08:45;;;;;;;;;;;11.90;70.90;;;;;;5107830;27;83250;-40
2023/03/26 06:11:11;;;;;;;;;;;11.90;70.80;;;;;;5106626;27;85356;-39
2023/03/26 06:13:37;;;;;;;;;;;11.90;70.90;;;;;;5106902;27;82239;-40
2023/03/26 06:16:03;;;;;;;;;;;11.90;70.90;;;;;;5107510;27;83864;-40
2023/03/26 06:18:29;;;;;;;;;;;11.90;70.90;;;;;;5107108;27;84254;-41
2023/03/26 06:20:54;;;;;;;;;;;11.90;70.80;;;;;;5107423;27;82131;-40
2023/03/26 06:23:21;;;;;;;;;;;12.00;71.00;;;;;;5107175;27;83996;-40
2023/03/26 06:25:47;;;;;;;;;;;11.90;70.90;;;;;;5110055;27;84495;-41
2023/03/26 06:28:12;;;;;;;;;;;11.90;70.90;;;;;;5107824;27;83926;-40
2023/03/26 06:30:38;;;;;;;;;;;11.90;70.90;;;;;;5107100;27;84497;-40
2023/03/26 06:33:03;;;;;;;;;;;11.90;71.00;;;;;;5107028;27;82085;-40
2023/03/26 06:35:29;;;;;;;;;;;11.90;70.90;;;;;;5106899;27;83882;-40
2023/03/26 06:37:55;;;;;;;;;;;11.90;71.00;;;;;;5107161;27;83277;-41
2023/03/26 06:40:21;;;;;;;;;;;11.90;71.00;;;;;;5105873;27;82077;-39
2023/03/26 06:42:46;;;;;;;;;;;11.90;71.00;;;;;;5106882;27;83867;-40
2023/03/26 06:45:12;;;;;;;;;;;11.90;71.10;;;;;;5106285;27;83100;-41
2023/03/26 06:47:37;;;;;;;;;;;11.90;71.10;;;;;;5109785;27;82103;-41
2023/03/26 06:50:03;;;;;;;;;;;11.90;71.20;;;;;;5106799;27;84513;-39
2023/03/26 06:52:29;;;;;;;;;;;11.90;71.20;;;;;;5107635;27;81467;-40
2023/03/26 06:54:55;;;;;;;;;;;11.90;71.20;;;;;;5107555;27;82077;-41
2023/03/26 06:57:20;;;;;;;;;;;11.90;71.20;;;;;;5106541;27;84586;-40
2023/03/26 06:59:46;;;;;;;;;;;11.90;71.20;;;;;;5102558;27;82841;-41
2023/03/26 07:02:11;;;;;;;;;;;11.90;71.10;;;;;;5106921;27;84173;-40
2023/03/26 07:04:37;;;;;;;;;;;11.90;71.10;;;;;;5106620;27;84485;-40
2023/03/26 07:07:03;;;;;;;;;;;11.80;71.10;;;;;;5106915;27;82003;-40
2023/03/26 07:09:31;;;;;;;;;;;11.80;71.10;;;;;;5109613;27;84008;-40
2023/03/26 07:11:57;;;;;;;;;;;11.90;71.10;;;;;;5102247;27;82146;-41
2023/03/26 07:14:29;;;;;;;;;;;11.90;71.10;;;;;;5105865;27;83994;-41
2023/03/26 07:16:56;;;;;;;;;;;11.90;70.90;;;;;;5106848;27;83507;-41
2023/03/26 07:19:21;;;;;;;;;;;11.90;71.00;;;;;;5106821;27;82075;-39
2023/03/26 07:21:47;;;;;;;;;;;11.90;70.90;;;;;;5106451;27;83808;-40
2023/03/26 07:24:13;;;;;;;;;;;11.90;71.00;;;;;;5105966;27;84005;-41
2023/03/26 07:26:54;;;;;;;;;;;11.90;71.00;;;;;;5106756;27;82375;-40
2023/03/26 07:29:22;;;;;;;;;;;11.90;71.00;;;;;;5106267;27;83680;-41
2023/03/26 07:31:59;;;;;;;;;;;11.90;71.10;;;;;;5105521;27;84740;-41
2023/03/26 07:34:27;;;;;;;;;;;11.90;70.90;;;;;;5106596;27;82790;-40
2023/03/26 07:36:56;;;;;;;;;;;11.90;71.00;;;;;;5106406;27;84339;-39
2023/03/26 07:39:30;;;;;;;;;;;11.90;71.10;;;;;;5102697;27;82079;-40
2023/03/26 07:41:56;;;;;;;;;;;11.90;71.10;;;;;;5107108;27;83729;-41
2023/03/26 07:44:26;;;;;;;;;;;12.00;71.10;;;;;;5106315;27;84698;-41
2023/03/26 07:46:52;;;;;;;;;;;12.00;71.10;;;;;;5102780;27;82070;-39
2023/03/26 07:49:18;;;;;;;;;;;12.00;71.10;;;;;;5105782;27;84383;-41
2023/03/26 07:51:44;;;;;;;;;;;12.00;71.10;;;;;;5105926;27;83430;-41
2023/03/26 07:54:10;;;;;;;;;;;12.00;71.10;;;;;;5109011;27;82080;-40
2023/03/26 07:56:47;;;;;;;;;;;12.00;71.10;;;;;;5107797;27;83129;-40
2023/03/26 07:59:39;;;;;;;;;;;12.00;71.10;;;;;;5107089;27;82095;-40
2023/03/26 08:02:23;;;;;;;;;;;12.00;71.10;;;;;;5101161;27;82404;-41
2023/03/26 08:04:58;;;;;;;;;;;12.00;71.10;;;;;;5106300;27;83334;-40
2023/03/26 08:07:32;;;;;;;;;;;12.00;71.10;;;;;;5110192;27;81368;-41
2023/03/26 08:10:07;;;;;;;;;;;12.00;71.20;;;;;;5106483;27;83044;-40
2023/03/26 08:12:38;;;;;;;;;;;12.00;71.20;;;;;;5109256;27;84750;-41
2023/03/26 08:15:04;;;;;;;;;;;12.00;71.20;;;;;;5112284;27;82956;-39
2023/03/26 08:17:34;;;;;;;;;;;12.00;71.10;;;;;;5109866;27;83094;-39
2023/03/26 08:20:05;;;;;;;;;;;12.00;71.10;;;;;;5109255;27;82093;-41
2023/03/26 08:22:37;;;;;;;;;;;12.00;71.20;;;;;;5109557;27;84590;-39
2023/03/26 08:25:09;;;;;;;;;;;12.00;71.30;;;;;;5106034;27;84409;-41
2023/03/26 08:27:40;;;;;;;;;;;12.00;71.30;;;;;;5109060;27;81958;-40
2023/03/26 08:30:13;;;;;;;;;;;12.00;71.10;;;;;;5109468;27;83722;-39
2023/03/26 08:32:39;;;;;;;;;;;12.00;71.00;;;;;;5109580;27;82316;-40
2023/03/26 08:35:04;;;;;;;;;;;12.00;71.00;;;;;;5109730;27;81995;-39
2023/03/26 08:37:30;;;;;;;;;;;12.00;71.00;;;;;;5111907;27;84089;-41
2023/03/26 08:39:56;;;;;;;;;;;12.00;71.00;;;;;;5108673;27;83003;-41
2023/03/26 08:42:37;;;;;;;;;;;12.10;70.90;;;;;;5109186;27;84735;-39
2023/03/26 08:45:02;;;;;;;;;;;12.00;70.60;;;;;;5109522;27;82041;-39
2023/03/26 08:47:46;;;;;;;;;;;12.00;70.50;;;;;;5109611;27;82066;-39
2023/03/26 08:50:27;;;;;;;;;;;12.00;70.30;;;;;;5107811;27;83941;-40
2023/03/26 08:53:08;;;;;;;;;;;12.00;70.40;;;;;;5105861;27;84614;-41
2023/03/26 08:55:55;;;;;;;;;;;12.10;70.70;;;;;;5109273;27;82113;-40
2023/03/26 08:58:33;;;;;;;;;;;12.00;70.40;;;;;;5109398;27;83753;-40
2023/03/26 09:00:58;;;;;;;;;;;12.10;70.70;;;;;;5111537;27;84671;-40
2023/03/26 09:03:42;;;;;;;;;;;12.10;70.70;;;;;;5108849;27;83605;-41
2023/03/26 09:06:08;;;;;;;;;;;12.10;70.60;;;;;;5105370;27;85438;-40
2023/03/26 09:08:49;;;;;;;;;;;12.10;70.40;;;;;;5108184;27;82174;-39
2023/03/26 09:11:22;;;;;;;;;;;12.10;70.40;;;;;;5105550;27;84255;-39
2023/03/26 09:14:03;;;;;;;;;;;12.10;70.50;;;;;;5107830;27;84895;-39
2023/03/26 09:16:47;;;;;;;;;;;12.10;70.50;;;;;;5106035;27;82276;-40
2023/03/26 09:19:31;;;;;;;;;;;12.10;70.60;;;;;;5105658;27;83803;-41
2023/03/26 09:22:15;;;;;;;;;;;12.10;70.50;;;;;;5093857;27;86183;-41
2023/03/26 09:24:40;;;;;;;;;;;12.10;70.00;;;;;;5111773;27;81394;-41
2023/03/26 09:27:09;;;;;;;;;;;12.10;70.10;;;;;;5100436;27;84737;-41
2023/03/26 09:29:41;;;;;;;;;;;12.10;70.00;;;;;;5107910;27;82136;-40
2023/03/26 09:32:08;;;;;;;;;;;12.10;70.00;;;;;;5107672;27;83575;-41
2023/03/26 09:34:52;;;;;;;;;;;12.10;70.00;;;;;;5107771;27;84517;-41
2023/03/26 09:37:25;;;;;;;;;;;12.10;70.00;;;;;;5106894;27;82224;-40
2023/03/26 09:40:00;;;;;;;;;;;12.10;69.70;;;;;;5104306;27;83629;-40
2023/03/26 09:42:45;;;;;;;;;;;12.10;69.70;;;;;;5107740;27;82899;-41
2023/03/26 09:45:29;;;;;;;;;;;12.10;69.40;;;;;;5105455;27;82098;-41
2023/03/26 09:47:54;;;;;;;;;;;12.20;69.40;;;;;;5107874;27;82208;-40
2023/03/26 09:50:29;;;;;;;;;;;12.10;69.20;;;;;;5108666;27;81857;-40
2023/03/26 09:53:13;;;;;;;;;;;12.10;69.30;;;;;;5107391;27;83325;-41
2023/03/26 09:55:52;;;;;;;;;;;12.20;69.20;;;;;;5101687;27;83615;-40
2023/03/26 09:58:29;;;;;;;;;;;12.20;68.50;;;;;;5103447;27;82927;-40
2023/03/26 10:01:14;;;;;;;;;;;12.20;68.40;;;;;;5108252;27;83143;-39
2023/03/26 10:03:57;;;;;;;;;;;12.20;68.30;;;;;;5106429;27;83801;-40
2023/03/26 10:06:29;;;;;;;;;;;12.20;68.40;;;;;;5105540;27;82446;-40
2023/03/26 10:09:00;;;;;;;;;;;12.20;68.30;;;;;;5107837;27;83827;-40
2023/03/26 10:11:32;;;;;;;;;;;12.20;68.50;;;;;;5106549;27;83509;-40
2023/03/26 10:13:58;;;;;;;;;;;12.20;68.40;;;;;;5106973;27;83758;-40
2023/03/26 10:16:30;;;;;;;;;;;12.20;68.60;;;;;;5107892;27;83557;-40
2023/03/26 10:18:58;;;;;;;;;;;12.20;68.50;;;;;;5102838;27;82037;-41
2023/03/26 10:21:42;;;;;;;;;;;12.20;68.40;;;;;;5107682;27;84077;-40
2023/03/26 10:24:12;;;;;;;;;;;12.30;68.30;;;;;;5103396;27;85329;-39
2023/03/26 10:26:56;;;;;;;;;;;12.20;68.30;;;;;;5107164;27;82131;-40
2023/03/26 10:29:21;;;;;;;;;;;12.30;68.40;;;;;;5104552;27;83541;-39
2023/03/26 10:31:59;;;;;;;;;;;12.30;68.10;;;;;;5110233;27;84543;-41
2023/03/26 10:34:33;;;;;;;;;;;12.30;68.00;;;;;;5099037;27;83837;-39
2023/03/26 10:36:59;;;;;;;;;;;12.30;68.10;;;;;;5107161;27;84341;-40
2023/03/26 10:39:24;;;;;;;;;;;12.30;68.00;;;;;;5107368;27;82457;-40
2023/03/26 10:41:53;;;;;;;;;;;12.30;68.10;;;;;;5107370;27;83802;-40
2023/03/26 10:44:21;;;;;;;;;;;12.40;68.20;;;;;;5103214;27;84489;-40
2023/03/26 10:46:46;;;;;;;;;;;12.40;68.20;;;;;;5106684;27;82130;-40
2023/03/26 10:49:18;;;;;;;;;;;12.40;68.10;;;;;;5106734;27;84064;-39
2023/03/26 10:51:53;;;;;;;;;;;12.40;67.50;;;;;;5106932;27;83456;-41
2023/03/26 10:54:31;;;;;;;;;;;12.40;67.30;;;;;;5106996;27;82242;-40
2023/03/26 10:56:59;;;;;;;;;;;12.40;67.30;;;;;;5106869;27;84063;-41
2023/03/26 10:59:26;;;;;;;;;;;12.40;67.40;;;;;;5107006;27;82025;-40
2023/03/26 11:02:23;;;;;;;;;;;12.40;67.60;;;;;;5106936;27;83781;-41
2023/03/26 11:04:54;;;;;;;;;;;12.50;67.60;;;;;;5104600;27;83865;-41
2023/03/26 11:07:37;;;;;;;;;;;12.50;67.10;;;;;;5107214;27;81207;-39
2023/03/26 11:10:09;;;;;;;;;;;12.50;67.20;;;;;;5106459;27;83523;-41
2023/03/26 11:12:43;;;;;;;;;;;12.50;67.40;;;;;;5102765;27;83495;-40
2023/03/26 11:15:15;;;;;;;;;;;12.50;67.60;;;;;;5105639;27;82929;-39
2023/03/26 11:17:46;;;;;;;;;;;12.50;67.90;;;;;;5109195;27;84596;-39
2023/03/26 11:20:17;;;;;;;;;;;12.60;67.70;;;;;;5106496;27;82526;-39
2023/03/26 11:22:55;;;;;;;;;;;12.60;67.30;;;;;;5106476;27;84244;-41
2023/03/26 11:25:25;;;;;;;;;;;12.60;67.00;;;;;;5103107;27;83247;-41
2023/03/26 11:27:50;;;;;;;;;;;12.60;66.90;;;;;;5105833;27;82080;-41
2023/03/26 11:30:16;;;;;;;;;;;12.60;67.10;;;;;;5107799;27;83943;-39
2023/03/26 11:32:46;;;;;;;;;;;12.60;67.30;;;;;;5108920;27;82841;-39
2023/03/26 11:35:20;;;;;;;;;;;12.60;67.40;;;;;;5106217;27;82062;-40
2023/03/26 11:37:49;;;;;;;;;;;12.60;67.60;;;;;;5110302;27;84158;-41
2023/03/26 11:40:24;;;;;;;;;;;12.70;67.70;;;;;;5112163;27;85284;-41
2023/03/26 11:42:55;;;;;;;;;;;12.70;67.10;;;;;;5107500;27;84986;-39
2023/03/26 11:45:24;;;;;;;;;;;12.70;66.70;;;;;;5109488;27;84805;-40
2023/03/26 11:47:51;;;;;;;;;;;12.70;66.90;;;;;;5109849;27;82146;-41
2023/03/26 11:50:19;;;;;;;;;;;12.70;67.30;;;;;;5110331;27;82603;-41
2023/03/26 11:52:45;;;;;;;;;;;12.70;67.40;;;;;;5109873;27;83275;-41
2023/03/26 11:55:11;;;;;;;;;;;12.70;67.60;;;;;;5109420;27;82185;-40
2023/03/26 11:57:41;;;;;;;;;;;12.80;66.80;;;;;;5110160;27;83144;-39
2023/03/26 12:00:16;;;;;;;;;;;12.80;66.70;;;;;;5105681;27;84332;-41
2023/03/26 12:02:43;;;;;;;;;;;12.80;66.30;;;;;;5112682;27;81988;-41
2023/03/26 12:05:10;;;;;;;;;;;12.80;66.10;;;;;;5109173;27;84139;-40
2023/03/26 12:07:44;;;;;;;;;;;12.80;66.30;;;;;;5109481;27;82190;-39
2023/03/26 12:10:20;;;;;;;;;;;12.80;66.50;;;;;;5109662;27;83925;-41
2023/03/26 12:12:46;;;;;;;;;;;12.90;66.80;;;;;;5108689;27;84176;-40
2023/03/26 12:15:17;;;;;;;;;;;12.90;66.40;;;;;;5109436;27;82100;-41
2023/03/26 12:17:44;;;;;;;;;;;12.90;66.40;;;;;;5109452;27;83850;-40
2023/03/26 12:20:25;;;;;;;;;;;12.90;66.70;;;;;;5109182;27;83676;-40
2023/03/26 12:22:51;;;;;;;;;;;12.90;66.70;;;;;;5107044;27;81350;-41
2023/03/26 12:25:20;;;;;;;;;;;12.90;66.80;;;;;;5112199;27;82833;-40
2023/03/26 12:27:45;;;;;;;;;;;13.00;66.30;;;;;;5109501;27;82022;-39
2023/03/26 12:30:21;;;;;;;;;;;13.00;66.00;;;;;;5108724;27;83842;-41
2023/03/26 12:32:48;;;;;;;;;;;13.00;66.50;;;;;;5109143;27;84812;-40
2023/03/26 12:35:17;;;;;;;;;;;13.00;66.70;;;;;;5109143;27;82113;-41
2023/03/26 12:37:44;;;;;;;;;;;13.00;67.30;;;;;;5109185;27;82356;-40
2023/03/26 12:40:26;;;;;;;;;;;13.10;66.60;;;;;;5109269;27;84180;-40
2023/03/26 12:43:03;;;;;;;;;;;13.10;66.80;;;;;;5108535;27;82015;-40
2023/03/26 12:45:30;;;;;;;;;;;13.10;66.80;;;;;;5111337;27;82350;-39
2023/03/26 12:47:56;;;;;;;;;;;13.10;66.70;;;;;;5109657;27;81595;-41
2023/03/26 12:50:28;;;;;;;;;;;13.10;66.60;;;;;;5108971;27;82981;-41
2023/03/26 12:53:05;;;;;;;;;;;13.10;66.10;;;;;;5101570;27;84455;-41
2023/03/26 12:55:31;;;;;;;;;;;13.10;66.30;;;;;;5107774;27;82992;-40
2023/03/26 12:58:05;;;;;;;;;;;13.20;65.90;;;;;;5108876;27;83338;-40
2023/03/26 13:00:46;;;;;;;;;;;13.20;66.20;;;;;;5108313;27;84225;-41
2023/03/26 13:03:30;;;;;;;;;;;13.20;66.30;;;;;;5104978;27;82114;-41
2023/03/26 13:06:10;;;;;;;;;;;13.20;66.20;;;;;;5108717;27;83752;-40
2023/03/26 13:08:49;;;;;;;;;;;13.20;66.30;;;;;;5111638;27;82834;-40
2023/03/26 13:11:14;;;;;;;;;;;13.20;66.30;;;;;;5104954;27;83929;-41
2023/03/26 13:13:40;;;;;;;;;;;13.30;66.30;;;;;;5108328;27;82815;-41
2023/03/26 13:16:15;;;;;;;;;;;13.30;65.90;;;;;;5108681;27;82056;-41
2023/03/26 13:18:55;;;;;;;;;;;13.30;66.10;;;;;;5104294;27;83756;-40
2023/03/26 13:21:21;;;;;;;;;;;13.30;65.80;;;;;;5107461;27;84377;-40
2023/03/26 13:23:51;;;;;;;;;;;13.30;65.50;;;;;;5108452;27;82143;-40
2023/03/26 13:26:35;;;;;;;;;;;13.40;65.80;;;;;;5104867;27;83793;-40
2023/03/26 13:29:01;;;;;;;;;;;13.40;66.00;;;;;;5108051;27;83481;-41
2023/03/26 13:31:32;;;;;;;;;;;13.40;66.10;;;;;;5110789;27;82343;-41
2023/03/26 13:34:21;;;;;;;;;;;13.40;65.90;;;;;;5107763;27;84383;-40
2023/03/26 13:36:52;;;;;;;;;;;13.40;65.70;;;;;;5105577;27;82105;-39
2023/03/26 13:39:18;;;;;;;;;;;13.40;66.10;;;;;;5108233;27;83553;-40
2023/03/26 13:42:02;;;;;;;;;;;13.50;66.20;;;;;;5107441;27;84542;-41
2023/03/26 13:44:30;;;;;;;;;;;13.50;66.40;;;;;;5107303;27;82124;-41
2023/03/26 13:47:02;;;;;;;;;;;13.50;65.80;;;;;;5103100;27;83056;-40
2023/03/26 13:49:36;;;;;;;;;;;13.60;65.50;;;;;;5107678;27;82658;-39
2023/03/26 13:52:04;;;;;;;;;;;13.60;65.50;;;;;;5103189;27;82627;-40
2023/03/26 13:54:40;;;;;;;;;;;13.60;65.60;;;;;;5105327;27;83826;-39
2023/03/26 13:57:24;;;;;;;;;;;13.60;65.50;;;;;;5107489;27;82095;-41
2023/03/26 13:59:59;;;;;;;;;;;13.60;65.40;;;;;;5105160;27;83786;-39
2023/03/26 14:02:30;;;;;;;;;;;13.70;65.40;;;;;;5106950;27;84853;-40
2023/03/26 14:05:00;;;;;;;;;;;13.80;65.00;;;;;;5108190;27;81365;-41
2023/03/26 14:07:28;;;;;;;;;;;13.80;64.60;;;;;;5107974;27;82164;-41
2023/03/26 14:09:57;;;;;;;;;;;13.80;64.50;;;;;;5107484;27;84332;-41
2023/03/26 14:12:47;;;;;;;;;;;13.80;64.70;;;;;;5102800;27;83022;-41
2023/03/26 14:15:17;;;;;;;;;;;13.90;64.70;;;;;;5103275;27;84755;-41
2023/03/26 14:18:18;;;;;;;;;;;13.90;64.80;;;;;;5109215;27;83200;-41
2023/03/26 14:20:58;;;;;;;;;;;13.90;64.50;;;;;;5084114;27;82412;-40
2023/03/26 14:23:29;;;;;;;;;;;13.90;64.70;;;;;;5101910;27;84534;-41
2023/03/26 14:25:55;;;;;;;;;;;14.00;65.00;;;;;;5107041;27;82195;-41
2023/03/26 14:28:35;;;;;;;;;;;14.00;64.90;;;;;;5107600;27;82227;-41
2023/03/26 14:31:21;;;;;;;;;;;14.00;64.70;;;;;;5107661;27;82476;-41
2023/03/26 14:34:01;;;;;;;;;;;14.10;64.60;;;;;;5105545;27;82015;-40